sensor_id;sensor_type;location;lat;lon;timestamp;pressure;altitude;pressure_sealevel;temperature;humidity
78584;BME280;67880;46.082;18.234;2023-04-24T00:00:09;98834.69;;;14.73;51.05
78584;BME280;67880;46.082;18.234;2023-04-24T00:00:40;98840.28;;;14.71;51.30
78584;BME280;67880;46.082;18.234;2023-04-24T00:01:11;98843.22;;;14.70;51.40
78584;BME280;67880;46.082;18.234;2023-04-24T00:01:43;98837.81;;;14.70;51.21
78584;BME280;67880;46.082;18.234;2023-04-24T00:02:14;98839.03;;;14.74;51.37
78584;BME280;67880;46.082;18.234;2023-04-24T00:02:45;98837.38;;;14.73;51.51
78584;BME280;67880;46.082;18.234;2023-04-24T00:03:18;98841.75;;;14.74;52.06
78584;BME280;67880;46.082;18.234;2023-04-24T00:03:51;98838.00;;;14.75;51.60
78584;BME280;67880;46.082;18.234;2023-04-24T00:04:22;98837.00;;;14.76;52.18
78584;BME280;67880;46.082;18.234;2023-04-24T00:04:56;98837.59;;;14.78;52.10
78584;BME280;67880;46.082;18.234;2023-04-24T00:05:26;98836.56;;;14.79;52.23
78584;BME280;67880;46.082;18.234;2023-04-24T00:05:57;98837.00;;;14.76;51.97
78584;BME280;67880;46.082;18.234;2023-04-24T00:06:29;98838.00;;;14.75;51.64
78584;BME280;67880;46.082;18.234;2023-04-24T00:07:03;98838.00;;;14.75;51.30
78584;BME280;67880;46.082;18.234;2023-04-24T00:07:34;98830.94;;;14.74;51.74
78584;BME280;67880;46.082;18.234;2023-04-24T00:08:05;98830.31;;;14.72;51.03
78584;BME280;67880;46.082;18.234;2023-04-24T00:08:36;98834.69;;;14.73;51.15
78584;BME280;67880;46.082;18.234;2023-04-24T00:09:07;98832.59;;;14.68;51.25
78584;BME280;67880;46.082;18.234;2023-04-24T00:09:37;98831.75;;;14.68;51.26
78584;BME280;67880;46.082;18.234;2023-04-24T00:10:09;98828.22;;;14.67;51.88
78584;BME280;67880;46.082;18.234;2023-04-24T00:10:40;98825.13;;;14.63;51.11
78584;BME280;67880;46.082;18.234;2023-04-24T00:11:11;98834.28;;;14.69;51.50
78584;BME280;67880;46.082;18.234;2023-04-24T00:11:41;98838.00;;;14.68;51.44
78584;BME280;67880;46.082;18.234;2023-04-24T00:12:12;98836.34;;;14.67;51.55
78584;BME280;67880;46.082;18.234;2023-04-24T00:12:43;98829.69;;;14.70;51.42
78584;BME280;67880;46.082;18.234;2023-04-24T00:13:13;98831.38;;;14.71;51.50
78584;BME280;67880;46.082;18.234;2023-04-24T00:13:44;98830.53;;;14.70;51.27
78584;BME280;67880;46.082;18.234;2023-04-24T00:14:14;98833.03;;;14.72;51.57
78584;BME280;67880;46.082;18.234;2023-04-24T00:14:45;98825.53;;;14.74;51.72
78584;BME280;67880;46.082;18.234;2023-04-24T00:15:16;98827.63;;;14.72;52.44
78584;BME280;67880;46.082;18.234;2023-04-24T00:15:46;98826.78;;;14.71;52.35
78584;BME280;67880;46.082;18.234;2023-04-24T00:16:17;98824.09;;;14.71;52.59
78584;BME280;67880;46.082;18.234;2023-04-24T00:16:48;98829.28;;;14.66;52.55
78584;BME280;67880;46.082;18.234;2023-04-24T00:17:19;98823.47;;;14.62;52.39
78584;BME280;67880;46.082;18.234;2023-04-24T00:17:52;98820.53;;;14.57;52.51
78584;BME280;67880;46.082;18.234;2023-04-24T00:18:23;98824.69;;;14.60;52.62
78584;BME280;67880;46.082;18.234;2023-04-24T00:18:54;98823.84;;;14.59;52.26
78584;BME280;67880;46.082;18.234;2023-04-24T00:19:25;98828.44;;;14.59;52.36
78584;BME280;67880;46.082;18.234;2023-04-24T00:19:55;98831.13;;;14.59;52.66
78584;BME280;67880;46.082;18.234;2023-04-24T00:20:29;98829.69;;;14.56;52.71
78584;BME280;67880;46.082;18.234;2023-04-24T00:21:00;98829.88;;;14.55;52.75
78584;BME280;67880;46.082;18.234;2023-04-24T00:21:30;98828.84;;;14.56;53.12
78584;BME280;67880;46.082;18.234;2023-04-24T00:22:03;98820.53;;;14.57;53.17
78584;BME280;67880;46.082;18.234;2023-04-24T00:22:33;98825.72;;;14.59;53.17
78584;BME280;67880;46.082;18.234;2023-04-24T00:23:04;98822.19;;;14.58;53.26
78584;BME280;67880;46.082;18.234;2023-04-24T00:23:35;98815.53;;;14.54;52.64
78584;BME280;67880;46.082;18.234;2023-04-24T00:24:05;98821.16;;;14.53;53.15
78584;BME280;67880;46.082;18.234;2023-04-24T00:24:36;98822.41;;;14.50;53.12
78584;BME280;67880;46.082;18.234;2023-04-24T00:25:07;98814.47;;;14.49;53.02
78584;BME280;67880;46.082;18.234;2023-04-24T00:25:38;98816.34;;;14.48;53.17
78584;BME280;67880;46.082;18.234;2023-04-24T00:26:09;98820.09;;;14.47;52.99
78584;BME280;67880;46.082;18.234;2023-04-24T00:26:39;98813.66;;;14.48;52.89
78584;BME280;67880;46.082;18.234;2023-04-24T00:27:10;98822.97;;;14.46;53.00
78584;BME280;67880;46.082;18.234;2023-04-24T00:27:41;98817.13;;;14.42;52.90
78584;BME280;67880;46.082;18.234;2023-04-24T00:28:11;98818.00;;;14.43;53.31
78584;BME280;67880;46.082;18.234;2023-04-24T00:28:42;98818.81;;;14.43;53.41
78584;BME280;67880;46.082;18.234;2023-04-24T00:29:12;98818.38;;;14.40;53.14
78584;BME280;67880;46.082;18.234;2023-04-24T00:29:43;98817.13;;;14.35;53.20
78584;BME280;67880;46.082;18.234;2023-04-24T00:30:14;98817.75;;;14.31;53.44
78584;BME280;67880;46.082;18.234;2023-04-24T00:30:44;98822.31;;;14.30;53.87
78584;BME280;67880;46.082;18.234;2023-04-24T00:31:15;98819.81;;;14.29;53.54
78584;BME280;67880;46.082;18.234;2023-04-24T00:31:46;98821.50;;;14.30;53.85
78584;BME280;67880;46.082;18.234;2023-04-24T00:32:16;98826.91;;;14.30;53.68
78584;BME280;67880;46.082;18.234;2023-04-24T00:32:48;98827.53;;;14.32;53.28
78584;BME280;67880;46.082;18.234;2023-04-24T00:33:19;98828.13;;;14.27;53.42
78584;BME280;67880;46.082;18.234;2023-04-24T00:33:49;98826.03;;;14.29;53.36
78584;BME280;67880;46.082;18.234;2023-04-24T00:34:20;98824.38;;;14.28;53.67
78584;BME280;67880;46.082;18.234;2023-04-24T00:34:50;98822.94;;;14.26;53.92
78584;BME280;67880;46.082;18.234;2023-04-24T00:35:21;98830.19;;;14.25;53.71
78584;BME280;67880;46.082;18.234;2023-04-24T00:35:52;98821.06;;;14.26;53.99
78584;BME280;67880;46.082;18.234;2023-04-24T00:36:22;98818.56;;;14.25;54.01
78584;BME280;67880;46.082;18.234;2023-04-24T00:36:53;98820.22;;;14.26;54.16
78584;BME280;67880;46.082;18.234;2023-04-24T00:37:23;98825.00;;;14.24;53.85
78584;BME280;67880;46.082;18.234;2023-04-24T00:37:54;98818.13;;;14.21;54.54
78584;BME280;67880;46.082;18.234;2023-04-24T00:38:25;98815.03;;;14.18;54.16
78584;BME280;67880;46.082;18.234;2023-04-24T00:38:55;98826.63;;;14.12;54.21
78584;BME280;67880;46.082;18.234;2023-04-24T00:39:26;98816.66;;;14.12;53.67
78584;BME280;67880;46.082;18.234;2023-04-24T00:39:56;98813.53;;;14.15;53.70
78584;BME280;67880;46.082;18.234;2023-04-24T00:40:28;98818.09;;;14.08;54.14
78584;BME280;67880;46.082;18.234;2023-04-24T00:40:58;98820.19;;;14.13;54.15
78584;BME280;67880;46.082;18.234;2023-04-24T00:41:30;98811.66;;;14.09;53.65
78584;BME280;67880;46.082;18.234;2023-04-24T00:42:00;98818.91;;;14.08;54.00
78584;BME280;67880;46.082;18.234;2023-04-24T00:42:32;98820.78;;;14.08;53.92
78584;BME280;67880;46.082;18.234;2023-04-24T00:43:03;98813.13;;;14.05;53.94
78584;BME280;67880;46.082;18.234;2023-04-24T00:43:34;98823.06;;;14.04;53.83
78584;BME280;67880;46.082;18.234;2023-04-24T00:44:05;98816.19;;;14.02;53.87
78584;BME280;67880;46.082;18.234;2023-04-24T00:44:36;98822.63;;;14.01;54.15
78584;BME280;67880;46.082;18.234;2023-04-24T00:45:07;98823.47;;;14.01;54.39
78584;BME280;67880;46.082;18.234;2023-04-24T00:45:37;98822.03;;;13.99;54.44
78584;BME280;67880;46.082;18.234;2023-04-24T00:46:08;98819.50;;;13.97;54.25
78584;BME280;67880;46.082;18.234;2023-04-24T00:46:39;98824.72;;;13.99;54.59
78584;BME280;67880;46.082;18.234;2023-04-24T00:47:11;98821.19;;;13.98;54.18
78584;BME280;67880;46.082;18.234;2023-04-24T00:47:43;98818.66;;;13.97;54.35
78584;BME280;67880;46.082;18.234;2023-04-24T00:49:27;98812.44;;;13.96;54.30
78584;BME280;67880;46.082;18.234;2023-04-24T00:49:58;98811.81;;;13.94;54.25
78584;BME280;67880;46.082;18.234;2023-04-24T00:50:48;98813.66;;;13.87;53.58
78584;BME280;67880;46.082;18.234;2023-04-24T00:51:19;98815.09;;;13.83;54.15
78584;BME280;67880;46.082;18.234;2023-04-24T00:51:50;98818.44;;;13.85;54.06
78584;BME280;67880;46.082;18.234;2023-04-24T00:52:21;98815.09;;;13.83;54.23
78584;BME280;67880;46.082;18.234;2023-04-24T00:52:54;98819.66;;;13.82;54.14
78584;BME280;67880;46.082;18.234;2023-04-24T00:53:25;98813.63;;;13.80;54.25
78584;BME280;67880;46.082;18.234;2023-04-24T00:53:56;98821.53;;;13.82;54.15
78584;BME280;67880;46.082;18.234;2023-04-24T00:54:26;98824.63;;;13.79;54.43
78584;BME280;67880;46.082;18.234;2023-04-24T00:54:57;98814.66;;;13.79;54.43
78584;BME280;67880;46.082;18.234;2023-04-24T00:55:28;98821.69;;;13.74;54.24
78584;BME280;67880;46.082;18.234;2023-04-24T00:55:59;98825.81;;;13.70;54.68
78584;BME280;67880;46.082;18.234;2023-04-24T00:56:30;98824.34;;;13.67;54.92
78584;BME280;67880;46.082;18.234;2023-04-24T00:57:03;98821.47;;;13.69;54.47
78584;BME280;67880;46.082;18.234;2023-04-24T00:57:34;98833.69;;;13.71;54.82
78584;BME280;67880;46.082;18.234;2023-04-24T00:58:04;98820.88;;;13.73;54.86
78584;BME280;67880;46.082;18.234;2023-04-24T00:58:35;98822.53;;;13.74;54.84
78584;BME280;67880;46.082;18.234;2023-04-24T00:59:06;98825.44;;;13.73;54.81
78584;BME280;67880;46.082;18.234;2023-04-24T00:59:37;98830.16;;;13.71;55.17
78584;BME280;67880;46.082;18.234;2023-04-24T01:00:09;98827.47;;;13.71;55.00
78584;BME280;67880;46.082;18.234;2023-04-24T01:00:40;98821.06;;;13.72;55.13
78584;BME280;67880;46.082;18.234;2023-04-24T01:01:11;98818.75;;;13.69;54.92
78584;BME280;67880;46.082;18.234;2023-04-24T01:01:43;98819.56;;;13.63;54.77
78584;BME280;67880;46.082;18.234;2023-04-24T01:02:13;98821.00;;;13.65;55.10
78584;BME280;67880;46.082;18.234;2023-04-24T01:02:46;98826.81;;;13.62;55.13
78584;BME280;67880;46.082;18.234;2023-04-24T01:03:17;98823.09;;;13.63;54.91
78584;BME280;67880;46.082;18.234;2023-04-24T01:03:50;98818.28;;;13.59;55.23
78584;BME280;67880;46.082;18.234;2023-04-24T01:04:21;98819.97;;;13.60;54.99
78584;BME280;67880;46.082;18.234;2023-04-24T01:04:52;98820.97;;;13.59;55.52
78584;BME280;67880;46.082;18.234;2023-04-24T01:05:23;98823.50;;;13.60;55.12
78584;BME280;67880;46.082;18.234;2023-04-24T01:05:55;98815.78;;;13.57;55.70
78584;BME280;67880;46.082;18.234;2023-04-24T01:06:29;98816.00;;;13.55;55.66
78584;BME280;67880;46.082;18.234;2023-04-24T01:07:01;98816.81;;;13.56;55.33
78584;BME280;67880;46.082;18.234;2023-04-24T01:07:32;98819.72;;;13.54;55.65
78584;BME280;67880;46.082;18.234;2023-04-24T01:08:03;98816.00;;;13.55;55.31
78584;BME280;67880;46.082;18.234;2023-04-24T01:08:49;98814.09;;;13.49;55.38
78584;BME280;67880;46.082;18.234;2023-04-24T01:09:22;98807.25;;;13.47;55.46
78584;BME280;67880;46.082;18.234;2023-04-24T01:09:53;98814.91;;;13.50;55.64
78584;BME280;67880;46.082;18.234;2023-04-24T01:10:25;98813.25;;;13.49;55.23
78584;BME280;67880;46.082;18.234;2023-04-24T01:10:57;98807.84;;;13.42;55.55
78584;BME280;67880;46.082;18.234;2023-04-24T01:11:28;98810.31;;;13.44;55.25
78584;BME280;67880;46.082;18.234;2023-04-24T01:12:00;98811.16;;;13.44;55.04
78584;BME280;67880;46.082;18.234;2023-04-24T01:12:32;98813.63;;;13.46;55.57
78584;BME280;67880;46.082;18.234;2023-04-24T01:13:03;98812.44;;;13.48;55.26
78584;BME280;67880;46.082;18.234;2023-04-24T01:13:34;98810.13;;;13.45;55.59
78584;BME280;67880;46.082;18.234;2023-04-24T01:14:04;98813.47;;;13.47;55.53
78584;BME280;67880;46.082;18.234;2023-04-24T01:14:36;98807.25;;;13.47;55.11
78584;BME280;67880;46.082;18.234;2023-04-24T01:15:07;98804.72;;;13.45;54.96
78584;BME280;67880;46.082;18.234;2023-04-24T01:15:38;98814.69;;;13.45;54.82
78584;BME280;67880;46.082;18.234;2023-04-24T01:16:09;98814.50;;;13.46;54.82
78584;BME280;67880;46.082;18.234;2023-04-24T01:16:40;98813.84;;;13.44;55.20
78584;BME280;67880;46.082;18.234;2023-04-24T01:17:11;98807.63;;;13.44;55.12
78584;BME280;67880;46.082;18.234;2023-04-24T01:17:42;98810.94;;;13.46;55.30
78584;BME280;67880;46.082;18.234;2023-04-24T01:18:14;98805.13;;;13.42;55.37
78584;BME280;67880;46.082;18.234;2023-04-24T01:18:45;98815.50;;;13.45;54.82
78584;BME280;67880;46.082;18.234;2023-04-24T01:19:18;98814.69;;;13.45;55.10
78584;BME280;67880;46.082;18.234;2023-04-24T01:19:49;98815.72;;;13.44;55.04
78584;BME280;67880;46.082;18.234;2023-04-24T01:20:20;98806.56;;;13.38;55.42
78584;BME280;67880;46.082;18.234;2023-04-24T01:20:55;98813.81;;;13.38;55.78
78584;BME280;67880;46.082;18.234;2023-04-24T01:21:29;98807.84;;;13.42;55.37
78584;BME280;67880;46.082;18.234;2023-04-24T01:22:02;98813.22;;;13.42;55.48
78584;BME280;67880;46.082;18.234;2023-04-24T01:22:34;98814.63;;;13.38;55.47
78584;BME280;67880;46.082;18.234;2023-04-24T01:23:05;98816.72;;;13.36;55.54
78584;BME280;67880;46.082;18.234;2023-04-24T01:23:36;98813.56;;;13.33;55.76
78584;BME280;67880;46.082;18.234;2023-04-24T01:24:07;98813.16;;;13.29;55.91
78584;BME280;67880;46.082;18.234;2023-04-24T01:24:38;98820.78;;;13.25;56.11
78584;BME280;67880;46.082;18.234;2023-04-24T01:25:09;98812.56;;;13.34;56.00
78584;BME280;67880;46.082;18.234;2023-04-24T01:25:39;98811.78;;;13.40;56.03
78584;BME280;67880;46.082;18.234;2023-04-24T01:26:11;98819.00;;;13.39;55.65
78584;BME280;67880;46.082;18.234;2023-04-24T01:26:42;98810.06;;;13.39;55.96
78584;BME280;67880;46.082;18.234;2023-04-24T01:27:13;98814.63;;;13.38;55.75
78584;BME280;67880;46.082;18.234;2023-04-24T01:27:44;98811.13;;;13.38;56.01
78584;BME280;67880;46.082;18.234;2023-04-24T01:28:15;98808.00;;;13.34;55.89
78584;BME280;67880;46.082;18.234;2023-04-24T01:28:47;98804.06;;;13.37;55.88
78584;BME280;67880;46.082;18.234;2023-04-24T01:29:18;98806.56;;;13.38;56.42
78584;BME280;67880;46.082;18.234;2023-04-24T01:29:49;98800.75;;;13.35;56.66
78584;BME280;67880;46.082;18.234;2023-04-24T01:30:22;98805.06;;;13.29;56.88
78584;BME280;67880;46.082;18.234;2023-04-24T01:30:53;98804.84;;;13.31;57.17
78584;BME280;67880;46.082;18.234;2023-04-24T01:31:24;98809.22;;;13.32;56.79
78584;BME280;67880;46.082;18.234;2023-04-24T01:31:55;98797.81;;;13.30;57.12
78584;BME280;67880;46.082;18.234;2023-04-24T01:32:26;98808.34;;;13.24;57.10
78584;BME280;67880;46.082;18.234;2023-04-24T01:32:58;98802.13;;;13.24;57.03
78584;BME280;67880;46.082;18.234;2023-04-24T01:33:29;98805.00;;;13.22;57.13
78584;BME280;67880;46.082;18.234;2023-04-24T01:34:00;98803.97;;;13.23;57.21
78584;BME280;67880;46.082;18.234;2023-04-24T01:34:31;98795.41;;;13.20;57.15
78584;BME280;67880;46.082;18.234;2023-04-24T01:35:03;98802.53;;;13.21;56.91
78584;BME280;67880;46.082;18.234;2023-04-24T01:35:34;98796.22;;;13.14;57.31
78584;BME280;67880;46.082;18.234;2023-04-24T01:36:06;98796.66;;;13.17;57.24
78584;BME280;67880;46.082;18.234;2023-04-24T01:36:38;98806.19;;;13.20;57.22
78584;BME280;67880;46.082;18.234;2023-04-24T01:37:09;98794.38;;;13.14;57.04
78584;BME280;67880;46.082;18.234;2023-04-24T01:37:40;98801.63;;;13.14;57.28
78584;BME280;67880;46.082;18.234;2023-04-24T01:38:11;98798.72;;;13.15;57.04
78584;BME280;67880;46.082;18.234;2023-04-24T01:38:42;98794.78;;;13.18;57.52
78584;BME280;67880;46.082;18.234;2023-04-24T01:39:13;98795.19;;;13.15;57.29
78584;BME280;67880;46.082;18.234;2023-04-24T01:39:44;98793.53;;;13.14;57.66
78584;BME280;67880;46.082;18.234;2023-04-24T01:40:14;98791.22;;;13.11;57.70
78584;BME280;67880;46.082;18.234;2023-04-24T01:40:46;98797.22;;;13.13;57.72
78584;BME280;67880;46.082;18.234;2023-04-24T01:41:17;98796.81;;;13.09;57.72
78584;BME280;67880;46.082;18.234;2023-04-24T01:41:48;98796.34;;;13.06;57.78
78584;BME280;67880;46.082;18.234;2023-04-24T01:42:19;98797.00;;;13.08;57.95
78584;BME280;67880;46.082;18.234;2023-04-24T01:42:51;98798.22;;;13.05;57.80
78584;BME280;67880;46.082;18.234;2023-04-24T01:43:21;98795.53;;;13.05;58.16
78584;BME280;67880;46.082;18.234;2023-04-24T01:43:53;98795.53;;;13.05;58.08
78584;BME280;67880;46.082;18.234;2023-04-24T01:44:24;98788.06;;;13.07;58.18
78584;BME280;67880;46.082;18.234;2023-04-24T01:44:56;98790.13;;;13.05;57.82
78584;BME280;67880;46.082;18.234;2023-04-24T01:45:27;98801.53;;;13.07;58.16
78584;BME280;67880;46.082;18.234;2023-04-24T01:45:58;98790.75;;;13.07;57.93
78584;BME280;67880;46.082;18.234;2023-04-24T01:46:29;98795.31;;;13.07;57.88
78584;BME280;67880;46.082;18.234;2023-04-24T01:47:01;98791.78;;;13.06;58.18
78584;BME280;67880;46.082;18.234;2023-04-24T01:47:32;98787.44;;;13.05;58.33
78584;BME280;67880;46.082;18.234;2023-04-24T01:48:03;98796.56;;;13.04;58.56
78584;BME280;67880;46.082;18.234;2023-04-24T01:48:35;98791.75;;;12.99;58.42
78584;BME280;67880;46.082;18.234;2023-04-24T01:49:24;98792.63;;;13.07;58.25
78584;BME280;67880;46.082;18.234;2023-04-24T01:49:54;98789.75;;;13.08;58.18
78584;BME280;67880;46.082;18.234;2023-04-24T01:50:25;98783.91;;;13.05;58.44
78584;BME280;67880;46.082;18.234;2023-04-24T01:50:56;98782.47;;;13.02;58.21
78584;BME280;67880;46.082;18.234;2023-04-24T01:51:27;98782.47;;;13.02;58.25
78584;BME280;67880;46.082;18.234;2023-04-24T01:51:58;98789.50;;;13.03;58.23
78584;BME280;67880;46.082;18.234;2023-04-24T01:52:28;98785.78;;;13.04;58.37
78584;BME280;67880;46.082;18.234;2023-04-24T01:53:01;98784.94;;;13.04;58.48
78584;BME280;67880;46.082;18.234;2023-04-24T01:53:32;98780.19;;;13.06;58.20
78584;BME280;67880;46.082;18.234;2023-04-24T01:54:02;98788.03;;;13.00;58.22
78584;BME280;67880;46.082;18.234;2023-04-24T01:54:33;98790.97;;;13.06;58.17
78584;BME280;67880;46.082;18.234;2023-04-24T01:55:04;98783.91;;;13.05;58.37
78584;BME280;67880;46.082;18.234;2023-04-24T01:55:35;98778.72;;;13.03;58.30
78584;BME280;67880;46.082;18.234;2023-04-24T01:56:06;98789.72;;;13.01;58.40
78584;BME280;67880;46.082;18.234;2023-04-24T01:56:41;98794.91;;;13.03;58.65
78584;BME280;67880;46.082;18.234;2023-04-24T01:57:14;98790.13;;;13.05;59.13
78584;BME280;67880;46.082;18.234;2023-04-24T01:57:45;98784.94;;;13.04;58.79
78584;BME280;67880;46.082;18.234;2023-04-24T01:58:16;98784.75;;;13.05;59.09
78584;BME280;67880;46.082;18.234;2023-04-24T01:58:46;98791.63;;;13.08;59.15
78584;BME280;67880;46.082;18.234;2023-04-24T01:59:17;98791.41;;;13.09;58.68
78584;BME280;67880;46.082;18.234;2023-04-24T01:59:49;98789.75;;;13.08;58.57
78584;BME280;67880;46.082;18.234;2023-04-24T02:00:20;98790.59;;;13.09;58.63
78584;BME280;67880;46.082;18.234;2023-04-24T02:00:50;98785.81;;;13.11;58.42
78584;BME280;67880;46.082;18.234;2023-04-24T02:01:23;98793.94;;;13.17;58.22
78584;BME280;67880;46.082;18.234;2023-04-24T02:01:54;98784.50;;;13.21;58.42
78584;BME280;67880;46.082;18.234;2023-04-24T02:02:24;98783.66;;;13.21;58.13
78584;BME280;67880;46.082;18.234;2023-04-24T02:02:57;98780.47;;;13.17;58.41
78584;BME280;67880;46.082;18.234;2023-04-24T02:03:28;98787.31;;;13.20;58.28
78584;BME280;67880;46.082;18.234;2023-04-24T02:03:59;98781.78;;;13.21;58.26
78584;BME280;67880;46.082;18.234;2023-04-24T02:04:29;98779.94;;;13.22;58.34
78584;BME280;67880;46.082;18.234;2023-04-24T02:05:00;98778.91;;;13.23;58.35
78584;BME280;67880;46.082;18.234;2023-04-24T02:05:31;98777.56;;;13.19;58.39
78584;BME280;67880;46.082;18.234;2023-04-24T02:06:01;98785.53;;;13.20;58.70
78584;BME280;67880;46.082;18.234;2023-04-24T02:06:32;98784.06;;;13.24;58.84
78584;BME280;67880;46.082;18.234;2023-04-24T02:07:02;98783.88;;;13.26;58.84
78584;BME280;67880;46.082;18.234;2023-04-24T02:07:33;98783.88;;;13.26;58.88
78584;BME280;67880;46.082;18.234;2023-04-24T02:08:04;98783.25;;;13.24;59.02
78584;BME280;67880;46.082;18.234;2023-04-24T02:08:35;98782.88;;;13.27;58.93
78584;BME280;67880;46.082;18.234;2023-04-24T02:09:07;98781.78;;;13.21;59.07
78584;BME280;67880;46.082;18.234;2023-04-24T02:09:38;98776.41;;;13.21;59.07
78584;BME280;67880;46.082;18.234;2023-04-24T02:10:09;98776.19;;;13.23;59.05
78584;BME280;67880;46.082;18.234;2023-04-24T02:10:40;98774.53;;;13.22;59.35
78584;BME280;67880;46.082;18.234;2023-04-24T02:11:11;98777.78;;;13.17;59.25
78584;BME280;67880;46.082;18.234;2023-04-24T02:11:53;98773.19;;;13.11;59.64
78584;BME280;67880;46.082;18.234;2023-04-24T02:12:24;98770.25;;;13.06;59.87
78584;BME280;67880;46.082;18.234;2023-04-24T02:12:55;98776.72;;;13.12;59.88
78584;BME280;67880;46.082;18.234;2023-04-24T02:13:26;98776.50;;;13.13;59.52
78584;BME280;67880;46.082;18.234;2023-04-24T02:13:56;98772.34;;;13.11;59.73
78584;BME280;67880;46.082;18.234;2023-04-24T02:14:27;98772.16;;;13.12;59.85
78584;BME280;67880;46.082;18.234;2023-04-24T02:14:58;98770.50;;;13.11;59.78
78584;BME280;67880;46.082;18.234;2023-04-24T02:15:28;98769.88;;;13.09;60.04
78584;BME280;67880;46.082;18.234;2023-04-24T02:16:00;98769.66;;;13.11;59.90
78584;BME280;67880;46.082;18.234;2023-04-24T02:16:30;98774.41;;;13.09;59.72
78584;BME280;67880;46.082;18.234;2023-04-24T02:17:03;98768.78;;;13.04;60.05
78584;BME280;67880;46.082;18.234;2023-04-24T02:17:35;98775.00;;;13.04;59.78
78584;BME280;67880;46.082;18.234;2023-04-24T02:18:06;98764.81;;;12.99;60.01
78584;BME280;67880;46.082;18.234;2023-04-24T02:18:37;98773.72;;;13.00;60.10
78584;BME280;67880;46.082;18.234;2023-04-24T02:19:08;98767.31;;;13.01;60.22
78584;BME280;67880;46.082;18.234;2023-04-24T02:19:39;98762.56;;;13.03;60.06
78584;BME280;67880;46.082;18.234;2023-04-24T02:20:09;98770.44;;;13.05;60.20
78584;BME280;67880;46.082;18.234;2023-04-24T02:20:40;98773.34;;;13.03;59.97
78584;BME280;67880;46.082;18.234;2023-04-24T02:21:11;98767.13;;;13.02;59.78
78584;BME280;67880;46.082;18.234;2023-04-24T02:21:41;98774.13;;;12.97;60.40
78584;BME280;67880;46.082;18.234;2023-04-24T02:22:12;98767.69;;;12.98;59.91
78584;BME280;67880;46.082;18.234;2023-04-24T02:22:43;98768.78;;;13.04;60.24
78584;BME280;67880;46.082;18.234;2023-04-24T02:23:13;98769.41;;;13.06;60.03
78584;BME280;67880;46.082;18.234;2023-04-24T02:23:45;98766.09;;;13.04;60.17
78584;BME280;67880;46.082;18.234;2023-04-24T02:24:15;98769.19;;;13.07;59.97
78584;BME280;67880;46.082;18.234;2023-04-24T02:24:46;98771.84;;;13.00;59.84
78584;BME280;67880;46.082;18.234;2023-04-24T02:25:17;98771.84;;;13.00;59.84
78584;BME280;67880;46.082;18.234;2023-04-24T02:25:48;98771.47;;;13.04;59.96
78584;BME280;67880;46.082;18.234;2023-04-24T02:26:19;98772.56;;;13.09;59.82
78584;BME280;67880;46.082;18.234;2023-04-24T02:26:50;98772.97;;;13.13;60.23
78584;BME280;67880;46.082;18.234;2023-04-24T02:27:20;98770.72;;;13.16;59.75
78584;BME280;67880;46.082;18.234;2023-04-24T02:27:51;98766.59;;;13.14;59.79
78584;BME280;67880;46.082;18.234;2023-04-24T02:28:21;98771.31;;;13.12;59.72
78584;BME280;67880;46.082;18.234;2023-04-24T02:29:08;98768.41;;;13.13;60.09
78584;BME280;67880;46.082;18.234;2023-04-24T02:29:53;98772.56;;;13.09;60.23
78584;BME280;67880;46.082;18.234;2023-04-24T02:30:24;98773.97;;;13.05;60.40
78584;BME280;67880;46.082;18.234;2023-04-24T02:30:54;98762.16;;;13.06;60.35
78584;BME280;67880;46.082;18.234;2023-04-24T02:31:25;98774.59;;;13.07;60.55
78584;BME280;67880;46.082;18.234;2023-04-24T02:31:56;98771.06;;;13.07;60.74
78584;BME280;67880;46.082;18.234;2023-04-24T02:32:26;98764.84;;;13.06;60.55
78584;BME280;67880;46.082;18.234;2023-04-24T02:32:57;98768.00;;;13.10;60.64
78584;BME280;67880;46.082;18.234;2023-04-24T02:33:28;98758.84;;;13.04;60.63
78584;BME280;67880;46.082;18.234;2023-04-24T02:33:58;98765.25;;;13.03;60.88
78584;BME280;67880;46.082;18.234;2023-04-24T02:34:29;98757.56;;;13.00;60.86
78584;BME280;67880;46.082;18.234;2023-04-24T02:34:59;98766.47;;;13.00;60.78
78584;BME280;67880;46.082;18.234;2023-04-24T02:35:30;98759.63;;;12.98;60.68
78584;BME280;67880;46.082;18.234;2023-04-24T02:36:02;98761.28;;;12.99;61.03
78584;BME280;67880;46.082;18.234;2023-04-24T02:36:33;98766.47;;;13.00;60.79
78584;BME280;67880;46.082;18.234;2023-04-24T02:37:03;98764.19;;;12.97;60.98
78584;BME280;67880;46.082;18.234;2023-04-24T02:37:34;98762.78;;;13.01;61.12
78584;BME280;67880;46.082;18.234;2023-04-24T02:38:05;98763.34;;;12.97;61.42
78584;BME280;67880;46.082;18.234;2023-04-24T02:38:35;98760.84;;;12.95;61.16
78584;BME280;67880;46.082;18.234;2023-04-24T02:39:06;98763.34;;;12.97;61.25
78584;BME280;67880;46.082;18.234;2023-04-24T02:39:37;98761.28;;;12.99;61.12
78584;BME280;67880;46.082;18.234;2023-04-24T02:40:08;98769.16;;;13.00;61.16
78584;BME280;67880;46.082;18.234;2023-04-24T02:40:39;98759.88;;;13.03;61.07
78584;BME280;67880;46.082;18.234;2023-04-24T02:41:10;98752.00;;;13.01;61.18
78584;BME280;67880;46.082;18.234;2023-04-24T02:41:40;98756.72;;;12.99;60.97
78584;BME280;67880;46.082;18.234;2023-04-24T02:42:11;98754.69;;;13.01;61.46
78584;BME280;67880;46.082;18.234;2023-04-24T02:42:41;98758.00;;;13.04;61.86
78584;BME280;67880;46.082;18.234;2023-04-24T02:43:12;98753.84;;;13.01;61.50
78584;BME280;67880;46.082;18.234;2023-04-24T02:43:43;98753.66;;;13.02;61.65
78584;BME280;67880;46.082;18.234;2023-04-24T02:44:13;98760.06;;;13.01;61.52
78584;BME280;67880;46.082;18.234;2023-04-24T02:44:44;98762.53;;;12.96;61.56
78584;BME280;67880;46.082;18.234;2023-04-24T02:45:14;98760.84;;;12.95;61.90